createdAt,value
2017-01-19T00:00:56.278Z,0
2017-01-19T00:02:06.050Z,0
2017-01-19T00:03:15.776Z,0
2017-01-19T00:04:25.501Z,0
2017-01-19T00:05:35.233Z,0
2017-01-19T00:06:45.402Z,0
2017-01-19T00:07:56.164Z,0
2017-01-19T00:09:05.892Z,0
2017-01-19T00:10:15.609Z,0
2017-01-19T00:11:25.334Z,0
2017-01-19T00:12:35.059Z,0
2017-01-19T00:13:44.869Z,0
2017-01-19T00:14:54.601Z,0
2017-01-19T00:16:04.774Z,0
2017-01-19T00:17:14.935Z,0
2017-01-19T00:18:25.105Z,0
2017-01-19T00:19:35.344Z,0
2017-01-19T00:20:45.107Z,0
2017-01-19T00:21:55.272Z,0
2017-01-19T00:23:04.997Z,0
2017-01-19T00:24:14.718Z,0
2017-01-19T00:25:25.371Z,0
2017-01-19T00:26:35.100Z,0
2017-01-19T00:27:44.829Z,0
2017-01-19T00:28:54.558Z,0
2017-01-19T00:30:04.283Z,0
2017-01-19T00:31:13.612Z,0
2017-01-19T00:32:23.333Z,0
2017-01-19T00:33:33.506Z,0
2017-01-19T00:34:44.136Z,0
2017-01-19T00:35:54.757Z,0
2017-01-19T00:37:05.866Z,0
2017-01-19T00:38:16.034Z,0
2017-01-19T00:39:26.644Z,0
2017-01-19T00:40:36.821Z,0
2017-01-19T00:41:47.426Z,0
2017-01-19T00:42:57.203Z,0
2017-01-19T00:44:07.374Z,0
2017-01-19T00:45:17.109Z,0
2017-01-19T00:46:26.838Z,0
2017-01-19T00:47:37.031Z,0
2017-01-19T00:48:46.808Z,0
2017-01-19T00:49:56.533Z,0
2017-01-19T00:51:06.287Z,0
2017-01-19T00:52:16.012Z,0
2017-01-19T00:53:26.181Z,0
2017-01-19T00:54:36.842Z,0
2017-01-19T00:55:47.011Z,0
2017-01-19T00:56:56.736Z,0
2017-01-19T00:58:06.905Z,0
2017-01-19T00:59:16.622Z,0
2017-01-19T01:00:26.843Z,0
2017-01-19T01:01:37.900Z,0
2017-01-19T01:02:47.181Z,0
2017-01-19T01:03:56.906Z,0
2017-01-19T01:05:07.071Z,0
2017-01-19T01:06:17.296Z,0
2017-01-19T01:07:27.021Z,0
2017-01-19T01:08:37.190Z,0
2017-01-19T01:09:46.912Z,0
2017-01-19T01:10:57.084Z,0
2017-01-19T01:12:07.306Z,0
2017-01-19T01:13:17.031Z,0
2017-01-19T01:14:26.308Z,0
2017-01-19T01:15:36.037Z,0
2017-01-19T01:16:46.206Z,0
2017-01-19T01:17:55.983Z,0
2017-01-19T01:19:06.152Z,0
2017-01-19T01:20:16.325Z,0
2017-01-19T01:21:26.046Z,0
2017-01-19T01:22:36.220Z,0
2017-01-19T01:23:46.464Z,0
2017-01-19T01:24:57.070Z,0
2017-01-19T01:26:06.805Z,0
2017-01-19T01:27:16.088Z,0
2017-01-19T01:28:25.817Z,0
2017-01-19T01:29:35.594Z,0
2017-01-19T01:30:46.211Z,0
2017-01-19T01:31:55.936Z,0
2017-01-19T01:33:05.217Z,0
2017-01-19T01:34:15.388Z,0
2017-01-19T01:35:25.171Z,0
2017-01-19T01:36:34.896Z,0
2017-01-19T01:37:44.626Z,0
2017-01-19T01:38:54.346Z,0
2017-01-19T01:40:04.072Z,0
2017-01-19T01:41:13.405Z,0
2017-01-19T01:42:23.574Z,0
2017-01-19T01:43:33.744Z,0
2017-01-19T01:44:43.474Z,0
2017-01-19T01:45:53.207Z,0
2017-01-19T01:47:03.420Z,0
2017-01-19T01:48:13.153Z,0
2017-01-19T01:49:23.767Z,0
2017-01-19T01:50:33.497Z,0
2017-01-19T01:51:43.230Z,0
2017-01-19T01:52:53.004Z,0
2017-01-19T01:54:02.729Z,0
2017-01-19T01:55:12.458Z,0
2017-01-19T01:56:22.188Z,0
2017-01-19T01:57:31.922Z,0
2017-01-19T01:58:42.587Z,0
2017-01-19T01:59:52.764Z,0
2017-01-19T02:01:02.494Z,0
2017-01-19T02:02:12.659Z,0
2017-01-19T02:03:23.273Z,0
2017-01-19T02:04:33.054Z,0
2017-01-19T02:05:42.807Z,0
2017-01-19T02:06:53.421Z,0
2017-01-19T02:08:03.150Z,0
2017-01-19T02:09:12.876Z,0
2017-01-19T02:10:22.657Z,0
2017-01-19T02:11:32.827Z,0
2017-01-19T02:12:43.436Z,0
2017-01-19T02:13:53.161Z,0
2017-01-19T02:15:02.447Z,0
2017-01-19T02:16:12.224Z,0
2017-01-19T02:17:22.386Z,0
2017-01-19T02:18:32.115Z,0
2017-01-19T02:19:41.838Z,0
2017-01-19T02:20:51.562Z,0
2017-01-19T02:22:00.900Z,0
2017-01-19T02:23:10.650Z,0
2017-01-19T02:24:20.376Z,0
2017-01-19T02:25:30.105Z,0
2017-01-19T02:26:40.266Z,0
2017-01-19T02:27:50.484Z,0
2017-01-19T02:29:00.209Z,0
2017-01-19T02:30:09.939Z,0
2017-01-19T02:31:20.125Z,0
2017-01-19T02:32:30.290Z,0
2017-01-19T02:33:40.072Z,0
2017-01-19T02:34:49.801Z,0
2017-01-19T02:35:59.975Z,0
2017-01-19T02:37:09.696Z,0
2017-01-19T02:38:19.884Z,0
2017-01-19T02:39:29.671Z,0
2017-01-19T02:40:39.401Z,0
2017-01-19T02:41:48.686Z,0
2017-01-19T02:42:57.976Z,0
2017-01-19T02:44:07.701Z,0
2017-01-19T02:45:20.511Z,0
2017-01-19T02:46:30.680Z,0
2017-01-19T02:47:40.846Z,0
2017-01-19T02:48:50.567Z,0
2017-01-19T02:50:00.289Z,0
2017-01-19T02:51:10.266Z,0
2017-01-19T02:52:20.019Z,0
2017-01-19T02:53:30.189Z,0
2017-01-19T02:54:39.914Z,0
2017-01-19T02:55:49.644Z,0
2017-01-19T02:56:59.417Z,0
2017-01-19T02:58:09.582Z,0
2017-01-19T02:59:19.328Z,0
2017-01-19T03:00:29.053Z,0
2017-01-19T03:01:38.779Z,0
2017-01-19T03:02:49.100Z,0
2017-01-19T03:03:58.825Z,0
2017-01-19T03:05:08.111Z,0
2017-01-19T03:06:18.288Z,0
2017-01-19T03:07:28.458Z,0
2017-01-19T03:08:38.237Z,0
2017-01-19T03:09:47.965Z,0
2017-01-19T03:10:57.690Z,0
2017-01-19T03:12:08.299Z,0
2017-01-19T03:13:18.032Z,0
2017-01-19T03:14:27.806Z,0
2017-01-19T03:15:37.531Z,0
2017-01-19T03:16:47.705Z,0
2017-01-19T03:17:57.874Z,0
2017-01-19T03:19:08.040Z,0
2017-01-19T03:20:17.813Z,0
2017-01-19T03:21:27.986Z,0
2017-01-19T03:22:37.712Z,0
2017-01-19T03:23:46.993Z,0
2017-01-19T03:24:57.606Z,0
2017-01-19T03:26:07.380Z,0
2017-01-19T03:27:16.665Z,0
2017-01-19T03:28:26.835Z,0
2017-01-19T03:29:36.559Z,0
2017-01-19T03:30:46.281Z,0
2017-01-19T03:31:56.058Z,0
2017-01-19T03:33:06.231Z,0
2017-01-19T03:34:16.394Z,0
2017-01-19T03:35:26.118Z,0
2017-01-19T03:36:35.847Z,0
2017-01-19T03:37:46.065Z,0
2017-01-19T03:38:55.797Z,0
2017-01-19T03:40:05.971Z,0
2017-01-19T03:41:15.700Z,0
2017-01-19T03:42:25.865Z,0
2017-01-19T03:43:35.642Z,0
2017-01-19T03:44:44.932Z,0
2017-01-19T03:45:55.097Z,0
2017-01-19T03:47:04.830Z,0
2017-01-19T03:48:14.107Z,0
2017-01-19T03:49:23.889Z,0
2017-01-19T03:50:34.054Z,0
2017-01-19T03:51:43.359Z,0
2017-01-19T03:52:53.529Z,0
2017-01-19T03:54:03.294Z,0
2017-01-19T03:55:13.520Z,0
2017-01-19T03:56:23.244Z,0
2017-01-19T03:57:32.965Z,0
2017-01-19T03:58:43.575Z,0
2017-01-19T03:59:53.312Z,0
2017-01-19T04:01:03.090Z,0
2017-01-19T04:02:12.375Z,0
2017-01-19T04:03:22.114Z,0
2017-01-19T04:04:31.841Z,0
2017-01-19T04:05:41.570Z,0
2017-01-19T04:06:51.787Z,0
2017-01-19T04:08:01.069Z,0
2017-01-19T04:09:11.247Z,0
2017-01-19T04:10:21.419Z,0
2017-01-19T04:11:31.589Z,0
2017-01-19T04:12:41.806Z,0
2017-01-19T04:13:51.087Z,0
2017-01-19T04:15:01.253Z,0
2017-01-19T04:16:10.977Z,0
2017-01-19T04:17:21.143Z,0
2017-01-19T04:18:30.916Z,0
2017-01-19T04:19:40.642Z,0
2017-01-19T04:20:50.807Z,0
2017-01-19T04:22:00.556Z,0
2017-01-19T04:23:10.721Z,0
2017-01-19T04:24:20.943Z,0
2017-01-19T04:25:30.668Z,0
2017-01-19T04:26:40.397Z,0
2017-01-19T04:27:50.122Z,0
2017-01-19T04:28:59.844Z,0
2017-01-19T04:30:10.065Z,0
2017-01-19T04:31:20.235Z,0
2017-01-19T04:32:29.960Z,0
2017-01-19T04:33:39.724Z,0
2017-01-19T04:34:50.334Z,0
2017-01-19T04:36:00.104Z,0
2017-01-19T04:37:09.830Z,0
2017-01-19T04:38:20.002Z,0
2017-01-19T04:39:29.723Z,0
2017-01-19T04:40:39.449Z,0
2017-01-19T04:41:49.230Z,0
2017-01-19T04:42:58.983Z,0
2017-01-19T04:44:08.709Z,0
2017-01-19T04:45:18.886Z,0
2017-01-19T04:46:28.611Z,0
2017-01-19T04:47:38.388Z,0
2017-01-19T04:48:48.562Z,0
2017-01-19T04:49:58.723Z,0
2017-01-19T04:51:08.480Z,0
2017-01-19T04:52:18.206Z,0
2017-01-19T04:53:28.439Z,0
2017-01-19T04:54:38.600Z,0
2017-01-19T04:55:48.334Z,0
2017-01-19T04:56:58.497Z,0
2017-01-19T04:58:09.106Z,0
2017-01-19T04:59:18.883Z,0
2017-01-19T05:00:28.608Z,0
2017-01-19T05:01:38.333Z,0
2017-01-19T05:02:48.062Z,0
2017-01-19T05:03:57.795Z,0
2017-01-19T05:05:07.583Z,0
2017-01-19T05:06:17.303Z,0
2017-01-19T05:07:27.917Z,0
2017-01-19T05:08:38.085Z,0
2017-01-19T05:09:47.806Z,0
2017-01-19T05:10:57.587Z,0
2017-01-19T05:12:07.307Z,0
2017-01-19T05:13:17.496Z,0
2017-01-19T05:14:27.665Z,0
2017-01-19T05:15:37.386Z,0
2017-01-19T05:16:47.160Z,0
2017-01-19T05:17:57.332Z,0
2017-01-19T05:19:06.613Z,0
2017-01-19T05:20:16.330Z,0
2017-01-19T05:21:26.523Z,0
2017-01-19T05:22:36.296Z,0
2017-01-19T05:23:46.908Z,0
2017-01-19T05:24:57.077Z,0
2017-01-19T05:26:06.806Z,0
2017-01-19T05:27:16.091Z,0
2017-01-19T05:28:25.880Z,0
2017-01-19T05:29:35.617Z,0
2017-01-19T05:30:44.906Z,0
2017-01-19T05:31:54.631Z,0
2017-01-19T05:33:04.360Z,0
2017-01-19T05:34:14.237Z,0
2017-01-19T05:35:24.406Z,0
2017-01-19T05:36:34.128Z,0
2017-01-19T05:37:43.404Z,0
2017-01-19T05:38:53.132Z,0
2017-01-19T05:40:03.354Z,0
2017-01-19T05:41:13.079Z,0
2017-01-19T05:42:22.809Z,0
2017-01-19T05:43:32.089Z,0
2017-01-19T05:44:41.375Z,0
2017-01-19T05:45:51.592Z,0
2017-01-19T05:47:01.321Z,0
2017-01-19T05:48:11.046Z,0
2017-01-19T05:49:21.211Z,0
2017-01-19T05:50:30.936Z,0
2017-01-19T05:51:41.158Z,0
2017-01-19T05:52:50.883Z,0
2017-01-19T05:54:00.608Z,0
2017-01-19T05:55:10.353Z,0
2017-01-19T05:56:20.518Z,0
2017-01-19T05:57:31.179Z,0
2017-01-19T05:58:41.352Z,0
2017-01-19T05:59:51.074Z,0
2017-01-19T06:01:01.246Z,0
2017-01-19T06:02:11.408Z,0
2017-01-19T06:03:21.185Z,0
2017-01-19T06:04:30.910Z,0
2017-01-19T06:05:40.672Z,0
2017-01-19T06:06:50.840Z,0
2017-01-19T06:08:01.005Z,0
2017-01-19T06:09:10.786Z,0
2017-01-19T06:10:20.964Z,0
2017-01-19T06:11:30.681Z,0
2017-01-19T06:12:40.850Z,0
2017-01-19T06:13:50.579Z,0
2017-01-19T06:15:00.349Z,0
2017-01-19T06:16:09.633Z,0
2017-01-19T06:17:20.251Z,0
2017-01-19T06:18:30.856Z,0
2017-01-19T06:19:40.140Z,0
2017-01-19T06:20:49.474Z,0
2017-01-19T06:21:59.203Z,0
2017-01-19T06:23:08.932Z,0
2017-01-19T06:24:19.102Z,0
2017-01-19T06:25:29.279Z,0
2017-01-19T06:26:39.496Z,0
2017-01-19T06:27:49.226Z,0
2017-01-19T06:28:58.950Z,0
2017-01-19T06:30:09.559Z,0
2017-01-19T06:31:19.288Z,0
2017-01-19T06:32:29.506Z,0
2017-01-19T06:33:39.231Z,0
2017-01-19T06:34:48.952Z,0
2017-01-19T06:35:58.673Z,0
2017-01-19T06:37:08.398Z,0
2017-01-19T06:38:18.616Z,0
2017-01-19T06:39:28.341Z,0
2017-01-19T06:40:38.066Z,0
2017-01-19T06:41:47.791Z,0
2017-01-19T06:42:57.515Z,0
2017-01-19T06:44:07.285Z,0
2017-01-19T06:45:17.467Z,0
2017-01-19T06:46:26.752Z,0
2017-01-19T06:47:36.481Z,0
2017-01-19T06:48:47.086Z,0
2017-01-19T06:49:57.303Z,0
2017-01-19T06:51:07.473Z,0
2017-01-19T06:52:17.642Z,0
2017-01-19T06:53:28.267Z,0
2017-01-19T06:54:37.992Z,0
2017-01-19T06:55:47.773Z,0
2017-01-19T06:56:57.498Z,0
2017-01-19T06:58:07.220Z,0
2017-01-19T06:59:16.949Z,0
2017-01-19T07:00:27.122Z,0
2017-01-19T07:01:36.895Z,0
2017-01-19T07:02:46.612Z,0
2017-01-19T07:03:56.337Z,0
2017-01-19T07:05:06.059Z,0
2017-01-19T07:06:15.808Z,0
2017-01-19T07:07:25.585Z,0
2017-01-19T07:08:35.314Z,0
2017-01-19T07:09:45.039Z,0
2017-01-19T07:10:55.656Z,0
2017-01-19T07:12:05.826Z,0
2017-01-19T07:13:15.598Z,0
2017-01-19T07:14:25.328Z,0
2017-01-19T07:15:35.493Z,0
2017-01-19T07:16:46.098Z,0
2017-01-19T07:17:55.823Z,0
2017-01-19T07:19:05.601Z,0
2017-01-19T07:20:16.217Z,0
2017-01-19T07:21:25.506Z,0
2017-01-19T07:22:35.680Z,0
2017-01-19T07:23:45.409Z,0
2017-01-19T07:24:55.210Z,0
2017-01-19T07:26:05.379Z,0
2017-01-19T07:27:14.657Z,0
2017-01-19T07:28:24.381Z,0
2017-01-19T07:29:34.554Z,0
2017-01-19T07:30:44.781Z,5
2017-01-19T07:31:54.941Z,5
2017-01-19T07:33:04.666Z,5
2017-01-19T07:34:13.947Z,5
2017-01-19T07:35:23.676Z,5
2017-01-19T07:36:33.893Z,5
2017-01-19T07:37:43.622Z,5
2017-01-19T07:38:53.347Z,5
2017-01-19T07:40:03.526Z,5
2017-01-19T07:41:13.257Z,5
2017-01-19T07:42:23.914Z,5
2017-01-19T07:43:33.639Z,5
2017-01-19T07:44:42.928Z,5
2017-01-19T07:45:53.545Z,5
2017-01-19T07:47:03.298Z,5
2017-01-19T07:48:12.631Z,5
2017-01-19T07:49:22.351Z,10
2017-01-19T07:50:32.522Z,10
2017-01-19T07:51:42.246Z,10
2017-01-19T07:52:51.971Z,10
2017-01-19T07:54:01.752Z,10
2017-01-19T07:55:11.029Z,10
2017-01-19T07:56:20.758Z,10
2017-01-19T07:57:30.488Z,10
2017-01-19T07:58:40.216Z,10
2017-01-19T07:59:49.993Z,10
2017-01-19T08:00:59.719Z,10
2017-01-19T08:02:09.889Z,10
2017-01-19T08:03:20.061Z,15
2017-01-19T08:04:29.786Z,15
2017-01-19T08:05:39.563Z,15
2017-01-19T08:06:49.289Z,15
2017-01-19T08:07:59.449Z,15
2017-01-19T08:09:09.179Z,15
2017-01-19T08:10:18.912Z,15
2017-01-19T08:11:29.132Z,15
2017-01-19T08:12:39.302Z,15
2017-01-19T08:13:49.463Z,15
2017-01-19T08:14:59.188Z,20
2017-01-19T08:16:08.917Z,20
2017-01-19T08:17:18.694Z,20
2017-01-19T08:18:28.424Z,20
2017-01-19T08:19:38.588Z,20
2017-01-19T08:20:48.757Z,20
2017-01-19T08:21:58.935Z,20
2017-01-19T08:23:08.708Z,20
2017-01-19T08:24:17.993Z,25
2017-01-19T08:25:27.718Z,25
2017-01-19T08:26:37.443Z,25
2017-01-19T08:27:47.168Z,25
2017-01-19T08:28:56.498Z,25
2017-01-19T08:30:06.226Z,25
2017-01-19T08:31:16.396Z,25
2017-01-19T08:32:26.121Z,25
2017-01-19T08:33:35.407Z,25
2017-01-19T08:34:44.891Z,25
2017-01-19T08:35:55.061Z,25
2017-01-19T08:37:04.786Z,25
2017-01-19T08:38:14.511Z,25
2017-01-19T08:39:24.236Z,25
2017-01-19T08:40:34.041Z,30
2017-01-19T08:41:43.322Z,30
2017-01-19T08:42:53.049Z,30
2017-01-19T08:44:02.782Z,30
2017-01-19T08:45:13.398Z,30
2017-01-19T08:46:23.643Z,30
2017-01-19T08:47:33.369Z,35
2017-01-19T08:48:43.102Z,35
2017-01-19T08:49:53.271Z,35
2017-01-19T08:51:03.000Z,35
2017-01-19T08:52:12.781Z,35
2017-01-19T08:53:22.950Z,35
2017-01-19T08:54:33.132Z,35
2017-01-19T08:55:43.297Z,35
2017-01-19T08:56:53.474Z,35
2017-01-19T08:58:03.696Z,35
2017-01-19T08:59:13.865Z,35
2017-01-19T09:00:24.038Z,40
2017-01-19T09:01:33.767Z,40
2017-01-19T09:02:43.047Z,40
2017-01-19T09:03:52.377Z,40
2017-01-19T09:05:02.138Z,40
2017-01-19T09:06:11.867Z,40
2017-01-19T09:07:21.597Z,40
2017-01-19T09:08:31.326Z,40
2017-01-19T09:09:41.107Z,40
2017-01-19T09:10:50.828Z,40
2017-01-19T09:12:01.013Z,40
2017-01-19T09:13:11.186Z,45
2017-01-19T09:14:20.923Z,45
2017-01-19T09:15:30.729Z,45
2017-01-19T09:16:40.454Z,45
2017-01-19T09:17:49.763Z,45
2017-01-19T09:18:59.932Z,45
2017-01-19T09:20:10.097Z,45
2017-01-19T09:21:19.874Z,45
2017-01-19T09:22:29.595Z,45
2017-01-19T09:23:39.320Z,45
2017-01-19T09:24:49.493Z,45
2017-01-19T09:25:59.698Z,45
2017-01-19T09:27:09.919Z,45
2017-01-19T09:28:20.092Z,45
2017-01-19T09:29:30.258Z,40
2017-01-19T09:30:40.426Z,40
2017-01-19T09:31:50.183Z,40
2017-01-19T09:33:00.416Z,35
2017-01-19T09:34:10.585Z,30
2017-01-19T09:35:20.306Z,30
2017-01-19T09:36:30.031Z,30
2017-01-19T09:37:40.196Z,30
2017-01-19T09:38:50.854Z,30
2017-01-19T09:40:00.579Z,30
2017-01-19T09:41:09.868Z,25
2017-01-19T09:42:20.477Z,25
2017-01-19T09:43:30.209Z,25
2017-01-19T09:44:40.427Z,25
2017-01-19T09:45:49.708Z,25
2017-01-19T09:47:00.321Z,25
2017-01-19T09:48:10.051Z,30
2017-01-19T09:49:20.264Z,30
2017-01-19T09:50:30.045Z,30
2017-01-19T09:51:39.770Z,30
2017-01-19T09:52:49.496Z,25
2017-01-19T09:53:59.669Z,25
2017-01-19T09:55:09.405Z,30
2017-01-19T09:56:20.059Z,30
2017-01-19T09:57:29.780Z,30
2017-01-19T09:58:39.065Z,30
2017-01-19T09:59:49.235Z,30
2017-01-19T10:00:59.412Z,35
2017-01-19T10:02:09.633Z,35
2017-01-19T10:03:19.358Z,35
2017-01-19T10:04:29.523Z,35
2017-01-19T10:05:39.248Z,35
2017-01-19T10:06:48.973Z,35
2017-01-19T10:07:58.767Z,35
2017-01-19T10:09:08.940Z,40
2017-01-19T10:10:19.114Z,40
2017-01-19T10:11:28.838Z,40
2017-01-19T10:12:38.563Z,40
2017-01-19T10:13:48.344Z,40
2017-01-19T10:14:58.510Z,40
2017-01-19T10:16:08.239Z,40
2017-01-19T10:17:18.408Z,40
2017-01-19T10:18:28.126Z,45
2017-01-19T10:19:38.791Z,45
2017-01-19T10:20:48.516Z,45
2017-01-19T10:21:58.245Z,45
2017-01-19T10:23:08.411Z,45
2017-01-19T10:24:19.028Z,45
2017-01-19T10:25:28.825Z,45
2017-01-19T10:26:38.994Z,45
2017-01-19T10:27:48.719Z,50
2017-01-19T10:28:58.012Z,50
2017-01-19T10:30:09.061Z,50
2017-01-19T10:31:18.835Z,50
2017-01-19T10:32:29.007Z,50
2017-01-19T10:33:38.737Z,50
2017-01-19T10:34:48.914Z,50
2017-01-19T10:35:58.640Z,50
2017-01-19T10:37:08.412Z,55
2017-01-19T10:38:18.578Z,55
2017-01-19T10:39:28.308Z,55
2017-01-19T10:40:38.040Z,55
2017-01-19T10:41:47.765Z,55
2017-01-19T10:42:57.987Z,55
2017-01-19T10:44:08.600Z,55
2017-01-19T10:45:17.896Z,55
2017-01-19T10:46:27.622Z,60
2017-01-19T10:47:37.347Z,60
2017-01-19T10:48:47.125Z,60
2017-01-19T10:49:56.850Z,60
2017-01-19T10:51:07.023Z,55
2017-01-19T10:52:17.188Z,60
2017-01-19T10:53:26.918Z,60
2017-01-19T10:54:36.691Z,60
2017-01-19T10:55:46.424Z,60
2017-01-19T10:56:56.597Z,60
2017-01-19T10:58:06.331Z,65
2017-01-19T10:59:16.055Z,65
2017-01-19T11:00:25.833Z,65
2017-01-19T11:01:35.122Z,65
2017-01-19T11:02:45.295Z,65
2017-01-19T11:03:55.469Z,65
2017-01-19T11:05:06.078Z,65
2017-01-19T11:06:15.875Z,65
2017-01-19T11:07:25.604Z,65
2017-01-19T11:08:35.782Z,70
2017-01-19T11:09:45.071Z,70
2017-01-19T11:10:54.796Z,70
2017-01-19T11:12:04.601Z,70
2017-01-19T11:13:14.326Z,70
2017-01-19T11:14:24.492Z,70
2017-01-19T11:15:34.665Z,70
2017-01-19T11:16:44.406Z,70
2017-01-19T11:17:54.624Z,70
2017-01-19T11:19:04.377Z,70
2017-01-19T11:20:14.546Z,75
2017-01-19T11:21:24.719Z,70
2017-01-19T11:22:35.361Z,65
2017-01-19T11:23:45.138Z,65
2017-01-19T11:24:54.891Z,65
2017-01-19T11:26:04.616Z,70
2017-01-19T11:27:14.349Z,75
2017-01-19T11:28:24.075Z,75
2017-01-19T11:29:33.852Z,75
2017-01-19T11:30:43.593Z,75
2017-01-19T11:31:53.327Z,75
2017-01-19T11:33:03.499Z,75
2017-01-19T11:34:13.233Z,75
2017-01-19T11:35:23.007Z,75
2017-01-19T11:36:33.644Z,75
2017-01-19T11:37:43.841Z,75
2017-01-19T11:38:53.570Z,75
2017-01-19T11:40:03.740Z,75
2017-01-19T11:41:13.965Z,75
2017-01-19T11:42:24.138Z,75
2017-01-19T11:43:34.311Z,75
2017-01-19T11:44:44.477Z,75
2017-01-19T11:45:54.650Z,75
2017-01-19T11:47:04.435Z,75
2017-01-19T11:48:13.717Z,75
2017-01-19T11:49:23.450Z,75
2017-01-19T11:50:33.643Z,75
2017-01-19T11:51:43.812Z,75
2017-01-19T11:52:53.590Z,75
2017-01-19T11:54:03.319Z,75
2017-01-19T11:55:13.052Z,75
2017-01-19T11:56:22.338Z,75
2017-01-19T11:57:32.515Z,75
2017-01-19T11:58:42.736Z,75
2017-01-19T11:59:52.485Z,75
2017-01-19T12:01:02.654Z,75
2017-01-19T12:02:12.384Z,75
2017-01-19T12:03:22.109Z,75
2017-01-19T12:04:32.330Z,75
2017-01-19T12:05:42.500Z,75
2017-01-19T12:06:52.229Z,75
2017-01-19T12:08:02.405Z,75
2017-01-19T12:09:12.135Z,75
2017-01-19T12:10:21.908Z,75
2017-01-19T12:11:32.525Z,75
2017-01-19T12:12:42.255Z,75
2017-01-19T12:13:51.988Z,75
2017-01-19T12:15:01.717Z,75
2017-01-19T12:16:11.939Z,75
2017-01-19T12:17:21.664Z,75
2017-01-19T12:18:31.405Z,75
2017-01-19T12:19:41.578Z,75
2017-01-19T12:20:51.740Z,75
2017-01-19T12:22:02.408Z,75
2017-01-19T12:23:12.134Z,75
2017-01-19T12:24:22.303Z,75
2017-01-19T12:25:32.477Z,75
2017-01-19T12:26:42.202Z,75
2017-01-19T12:27:52.083Z,75
2017-01-19T12:29:01.816Z,75
2017-01-19T12:30:11.542Z,75
2017-01-19T12:31:21.718Z,75
2017-01-19T12:32:31.887Z,75
2017-01-19T12:33:42.104Z,75
2017-01-19T12:34:52.717Z,70
2017-01-19T12:36:02.890Z,70
2017-01-19T12:37:12.616Z,70
2017-01-19T12:38:22.344Z,70
2017-01-19T12:39:32.126Z,70
2017-01-19T12:40:41.851Z,70
2017-01-19T12:41:51.580Z,70
2017-01-19T12:43:01.313Z,70
2017-01-19T12:44:11.042Z,70
2017-01-19T12:45:21.290Z,70
2017-01-19T12:46:31.032Z,70
2017-01-19T12:47:40.769Z,70
2017-01-19T12:48:50.933Z,70
2017-01-19T12:50:01.111Z,70
2017-01-19T12:51:10.896Z,70
2017-01-19T12:52:20.629Z,70
2017-01-19T12:53:30.802Z,70
2017-01-19T12:54:40.523Z,70
2017-01-19T12:55:50.253Z,70
2017-01-19T12:57:00.474Z,70
2017-01-19T12:58:10.651Z,70
2017-01-19T12:59:20.828Z,70
2017-01-19T13:00:30.557Z,70
2017-01-19T13:01:40.282Z,70
2017-01-19T13:02:50.067Z,70
2017-01-19T13:03:59.812Z,70
2017-01-19T13:05:09.538Z,70
2017-01-19T13:06:19.719Z,70
2017-01-19T13:07:29.444Z,65
2017-01-19T13:08:39.221Z,65
2017-01-19T13:09:48.957Z,65
2017-01-19T13:10:59.132Z,65
2017-01-19T13:12:09.300Z,65
2017-01-19T13:13:19.038Z,65
2017-01-19T13:14:29.263Z,65
2017-01-19T13:15:38.992Z,65
2017-01-19T13:16:48.729Z,65
2017-01-19T13:17:59.382Z,60
2017-01-19T13:19:09.552Z,60
2017-01-19T13:20:19.333Z,60
2017-01-19T13:21:29.502Z,60
2017-01-19T13:22:40.119Z,60
2017-01-19T13:23:50.316Z,60
2017-01-19T13:25:00.485Z,60
2017-01-19T13:26:10.267Z,60
2017-01-19T13:27:20.000Z,60
2017-01-19T13:28:30.617Z,55
2017-01-19T13:29:40.346Z,55
2017-01-19T13:30:50.959Z,55
2017-01-19T13:32:00.757Z,55
2017-01-19T13:33:10.929Z,55
2017-01-19T13:34:21.103Z,55
2017-01-19T13:35:31.268Z,55
2017-01-19T13:36:41.441Z,55
2017-01-19T13:37:51.223Z,55
2017-01-19T13:39:01.400Z,55
2017-01-19T13:40:11.581Z,50
2017-01-19T13:41:21.306Z,50
2017-01-19T13:42:31.035Z,50
2017-01-19T13:43:41.256Z,50
2017-01-19T13:44:51.869Z,50
2017-01-19T13:46:02.041Z,50
2017-01-19T13:47:11.771Z,50
2017-01-19T13:48:21.496Z,50
2017-01-19T13:49:31.273Z,50
2017-01-19T13:50:41.886Z,50
2017-01-19T13:51:52.060Z,45
2017-01-19T13:53:01.788Z,45
2017-01-19T13:54:11.521Z,45
2017-01-19T13:55:21.302Z,45
2017-01-19T13:56:31.479Z,45
2017-01-19T13:57:41.652Z,45
2017-01-19T13:58:51.378Z,45
2017-01-19T14:00:01.107Z,45
2017-01-19T14:01:10.896Z,40
2017-01-19T14:02:21.069Z,40
2017-01-19T14:03:31.242Z,40
2017-01-19T14:04:40.971Z,40
2017-01-19T14:05:50.720Z,35
2017-01-19T14:07:00.498Z,35
2017-01-19T14:08:10.663Z,30
2017-01-19T14:09:20.396Z,25
2017-01-19T14:10:30.125Z,20
2017-01-19T14:11:40.298Z,20
2017-01-19T14:12:50.075Z,20
2017-01-19T14:14:00.245Z,15
2017-01-19T14:15:10.414Z,15
2017-01-19T14:16:20.591Z,15
2017-01-19T14:17:30.328Z,15
2017-01-19T14:18:40.105Z,15
2017-01-19T14:19:49.834Z,15
2017-01-19T14:21:00.008Z,15
2017-01-19T14:22:09.733Z,15
2017-01-19T14:23:19.466Z,15
2017-01-19T14:24:29.684Z,15
2017-01-19T14:25:39.856Z,15
2017-01-19T14:26:50.474Z,15
2017-01-19T14:28:00.647Z,15
2017-01-19T14:29:10.372Z,15
2017-01-19T14:30:20.149Z,15
2017-01-19T14:31:29.874Z,15
2017-01-19T14:32:40.491Z,15
2017-01-19T14:33:50.664Z,15
2017-01-19T14:35:01.721Z,15
2017-01-19T14:36:11.943Z,10
2017-01-19T14:37:22.116Z,10
2017-01-19T14:38:32.285Z,10
2017-01-19T14:39:42.010Z,10
2017-01-19T14:40:52.183Z,10
2017-01-19T14:42:02.408Z,10
2017-01-19T14:43:12.134Z,10
2017-01-19T14:44:22.303Z,10
2017-01-19T14:45:32.032Z,10
2017-01-19T14:46:42.649Z,10
2017-01-19T14:47:52.423Z,10
2017-01-19T14:49:02.592Z,10
2017-01-19T14:50:12.318Z,10
2017-01-19T14:51:22.042Z,10
2017-01-19T14:52:32.215Z,10
2017-01-19T14:53:42.440Z,10
2017-01-19T14:54:52.618Z,10
2017-01-19T14:56:02.343Z,10
2017-01-19T14:57:12.516Z,10
2017-01-19T14:58:22.685Z,10
2017-01-19T14:59:32.906Z,10
2017-01-19T15:00:42.635Z,10
2017-01-19T15:01:52.809Z,10
2017-01-19T15:03:02.566Z,10
2017-01-19T15:04:12.299Z,10
2017-01-19T15:05:22.076Z,10
2017-01-19T15:06:31.806Z,10
2017-01-19T15:07:41.983Z,10
2017-01-19T15:08:52.156Z,5
2017-01-19T15:10:01.885Z,5
2017-01-19T15:11:12.102Z,5
2017-01-19T15:12:22.279Z,5
2017-01-19T15:13:32.892Z,5
2017-01-19T15:14:42.618Z,5
2017-01-19T15:15:52.351Z,5
2017-01-19T15:17:02.136Z,5
2017-01-19T15:18:12.310Z,5
2017-01-19T15:19:22.043Z,5
2017-01-19T15:20:32.661Z,5
2017-01-19T15:21:42.829Z,5
2017-01-19T15:22:52.602Z,5
2017-01-19T15:24:02.331Z,5
2017-01-19T15:25:12.065Z,5
2017-01-19T15:26:22.234Z,5
2017-01-19T15:27:31.959Z,5
2017-01-19T15:28:41.744Z,0
2017-01-19T15:29:51.906Z,0
2017-01-19T15:31:02.519Z,0
2017-01-19T15:32:12.252Z,0
2017-01-19T15:33:21.981Z,0
2017-01-19T15:34:31.766Z,0
2017-01-19T15:35:41.492Z,0
2017-01-19T15:36:51.221Z,0
2017-01-19T15:38:01.399Z,0
2017-01-19T15:39:11.135Z,0
2017-01-19T15:40:21.348Z,0
2017-01-19T15:41:31.962Z,0
2017-01-19T15:42:41.687Z,0
2017-01-19T15:43:51.408Z,0
2017-01-19T15:45:01.137Z,0
2017-01-19T15:46:11.361Z,0
2017-01-19T15:47:21.088Z,0
2017-01-19T15:48:30.821Z,0
2017-01-19T15:49:40.994Z,0
2017-01-19T15:50:51.611Z,0
2017-01-19T15:52:01.828Z,0
2017-01-19T15:53:11.566Z,0
2017-01-19T15:54:21.742Z,0
2017-01-19T15:55:31.944Z,0
2017-01-19T15:56:41.680Z,0
2017-01-19T15:57:51.457Z,0
2017-01-19T15:59:01.185Z,0
2017-01-19T16:00:10.917Z,0
2017-01-19T16:01:21.102Z,0
2017-01-19T16:02:31.292Z,0
2017-01-19T16:03:41.072Z,0
2017-01-19T16:04:50.794Z,0
2017-01-19T16:06:00.523Z,0
2017-01-19T16:07:10.688Z,0
2017-01-19T16:08:20.857Z,0
2017-01-19T16:09:31.077Z,0
2017-01-19T16:10:40.804Z,0
2017-01-19T16:11:50.085Z,0
2017-01-19T16:13:00.254Z,0
2017-01-19T16:14:09.572Z,0
2017-01-19T16:15:18.900Z,0
2017-01-19T16:16:28.626Z,0
2017-01-19T16:17:38.351Z,0
2017-01-19T16:18:48.073Z,0
2017-01-19T16:19:57.802Z,0
2017-01-19T16:21:07.583Z,0
2017-01-19T16:22:17.316Z,0
2017-01-19T16:23:27.490Z,0
2017-01-19T16:24:38.103Z,0
2017-01-19T16:25:47.388Z,0
2017-01-19T16:26:57.165Z,0
2017-01-19T16:28:06.910Z,0
2017-01-19T16:29:17.079Z,0
2017-01-19T16:30:26.813Z,0
2017-01-19T16:31:36.539Z,0
2017-01-19T16:32:52.320Z,0
2017-01-19T16:34:02.129Z,0
2017-01-19T16:35:11.986Z,0
2017-01-19T16:36:21.727Z,0
2017-01-19T16:37:31.456Z,0
2017-01-19T16:38:41.637Z,0
2017-01-19T16:39:51.807Z,0
2017-01-19T16:41:02.031Z,0
2017-01-19T16:42:12.201Z,0
2017-01-19T16:43:21.931Z,0
2017-01-19T16:44:32.551Z,0
2017-01-19T16:45:42.737Z,0
2017-01-19T16:46:52.514Z,0
2017-01-19T16:48:02.691Z,0
2017-01-19T16:49:14.589Z,0
2017-01-19T16:50:26.622Z,0
2017-01-19T16:51:37.655Z,0
2017-01-19T16:52:50.900Z,0
2017-01-19T16:54:02.929Z,0
2017-01-19T16:55:16.755Z,0
2017-01-19T16:56:28.956Z,0
2017-01-19T16:57:41.365Z,0
2017-01-19T16:58:53.534Z,0